| time (UTC) | temp F | wind direction | speed knots | gust knots | rain 1hr in | rain 24hr in | rain mn in | humidity % | barometer mb |
| 20260502205314 | 67 | 253 | 1.7 | 1.7 | 0.00 | 0.00 | 0.00 | 42 | 1004.4 |
| 20260502204736 | 67 | 144 | 0.0 | 1.7 | 0.00 | 0.00 | 0.00 | 43 | 1004.5 |
| 20260502204313 | 66 | 162 | 4.3 | 7.0 | 0.00 | 0.00 | 0.00 | 44 | 1004.6 |
| 20260502203313 | 65 | 138 | 1.7 | 1.7 | 0.00 | 0.00 | 0.00 | 47 | 1004.6 |
| 20260502203235 | 65 | 216 | 4.3 | 5.2 | 0.00 | 0.00 | 0.00 | 47 | 1004.7 |
| 20260502202313 | 63 | 138 | 7.0 | 8.7 | 0.00 | 0.00 | 0.00 | 49 | 1004.7 |
| 20260502201735 | 63 | 115 | 4.3 | 8.7 | 0.00 | 0.00 | 0.00 | 51 | 1004.8 |
| 20260502201313 | 62 | 112 | 5.2 | 7.8 | 0.00 | 0.00 | 0.00 | 50 | 1004.8 |
| 20260502200314 | 62 | 105 | 8.7 | 7.8 | 0.00 | 0.00 | 0.00 | 50 | 1005.0 |
| 20260502200236 | 62 | 100 | 8.7 | 10.4 | 0.00 | 0.00 | 0.00 | 51 | 1005.0 |
| 20260502195313 | 61 | 121 | 7.0 | 7.8 | 0.00 | 0.00 | 0.00 | 54 | 1005.1 |
| 20260502194735 | 60 | 124 | 7.0 | 8.7 | 0.00 | 0.00 | 0.00 | 54 | 1005.2 |
| 20260502194313 | 60 | 120 | 7.0 | 7.8 | 0.00 | 0.00 | 0.00 | 54 | 1005.3 |
| 20260502193313 | 59 | 127 | 5.2 | 7.0 | 0.00 | 0.00 | 0.00 | 58 | 1005.4 |
| 20260502193235 | 59 | 127 | 4.3 | 7.0 | 0.00 | 0.00 | 0.00 | 56 | 1005.4 |
| 20260502192313 | 58 | 98 | 6.1 | 7.0 | 0.00 | 0.00 | 0.00 | 55 | 1005.5 |
| 20260502191735 | 59 | 90 | 7.0 | 7.0 | 0.00 | 0.00 | 0.00 | 53 | 1005.5 |
| 20260502191315 | 59 | 72 | 7.0 | 8.7 | 0.00 | 0.00 | 0.00 | 50 | 1005.7 |
| 20260502190314 | 59 | 80 | 6.1 | 7.8 | 0.00 | 0.00 | 0.00 | 47 | 1005.7 |
| 20260502190234 | 59 | 81 | 7.0 | 8.7 | 0.00 | 0.00 | 0.00 | 46 | 1005.7 |
| 20260502185313 | 59 | 100 | 11.3 | 10.4 | 0.00 | 0.00 | 0.00 | 47 | 1005.6 |
| 20260502184734 | 59 | 96 | 13.0 | 13.9 | 0.00 | 0.00 | 0.00 | 46 | 1005.6 |
| 20260502184314 | 59 | 90 | 11.3 | 13.0 | 0.00 | 0.00 | 0.00 | 47 | 1005.5 |
| 20260502183314 | 58 | 91 | 13.0 | 13.0 | 0.00 | 0.00 | 0.00 | 48 | 1005.4 |
| 20260502183234 | 58 | 91 | 13.0 | 13.9 | 0.00 | 0.00 | 0.00 | 48 | 1005.5 |
| 20260502182315 | 58 | 77 | 6.1 | 6.1 | 0.00 | 0.00 | 0.00 | 50 | 1005.8 |
| 20260502181734 | 58 | 109 | 7.8 | 8.7 | 0.00 | 0.00 | 0.00 | 50 | 1005.8 |
| 20260502181314 | 58 | 104 | 7.0 | 10.4 | 0.00 | 0.00 | 0.00 | 51 | 1005.9 |
| 20260502180314 | 58 | 152 | 2.6 | 5.2 | 0.00 | 0.00 | 0.00 | 51 | 1006.0 |
| 20260502180234 | 58 | 147 | 4.3 | 5.2 | 0.00 | 0.00 | 0.00 | 50 | 1005.9 |
| 20260502170313 | 57 | 222 | 4.3 | 10.4 | 0.00 | 0.00 | 0.00 | 49 | 1006.1 |
| 20260502170235 | 57 | 216 | 5.2 | 4.3 | 0.00 | 0.00 | 0.00 | 48 | 1006.0 |
| 20260502164314 | 57 | 130 | 1.7 | 0.9 | 0.00 | 0.00 | 0.00 | 50 | 1005.7 |
| 20260502163315 | 56 | 175 | 6.1 | 8.7 | 0.00 | 0.00 | 0.00 | 51 | 1005.7 |
| 20260502163236 | 56 | 182 | 7.0 | 10.4 | 0.00 | 0.00 | 0.00 | 50 | 1005.7 |
| 20260502162315 | 56 | 197 | 7.0 | 7.8 | 0.00 | 0.00 | 0.00 | 51 | 1005.9 |
| 20260502161734 | 56 | 195 | 7.0 | 8.7 | 0.00 | 0.00 | 0.00 | 49 | 1005.9 |
| 20260502161314 | 56 | 194 | 6.1 | 8.7 | 0.00 | 0.00 | 0.00 | 51 | 1006.0 |
| 20260502160314 | 56 | 192 | 7.8 | 8.7 | 0.00 | 0.00 | 0.00 | 49 | 1006.0 |
| 20260502160234 | 56 | 201 | 7.8 | 10.4 | 0.00 | 0.00 | 0.00 | 49 | 1006.0 |
| 20260502152314 | 55 | 199 | 7.8 | 10.4 | 0.00 | 0.00 | 0.00 | 49 | 1006.2 |
| 20260502151735 | 55 | 205 | 6.1 | 11.3 | 0.00 | 0.00 | 0.00 | 49 | 1006.2 |
| 20260502151313 | 55 | 210 | 7.8 | 7.0 | 0.00 | 0.00 | 0.00 | 48 | 1006.2 |
| 20260502150313 | 55 | 202 | 7.0 | 8.7 | 0.00 | 0.00 | 0.00 | 50 | 1006.1 |
| 20260502150235 | 55 | 212 | 6.1 | 8.7 | 0.00 | 0.00 | 0.00 | 50 | 1006.2 |
| 20260502130313 | 42 | 157 | 7.0 | 7.0 | 0.00 | 0.00 | 0.00 | 60 | 1007.4 |
| 20260502130235 | 42 | 166 | 7.0 | 12.2 | 0.00 | 0.00 | 0.00 | 60 | 1007.4 |
| 20260502123314 | 40 | 152 | 8.7 | 13.0 | 0.00 | 0.00 | 0.00 | 62 | 1007.7 |
| 20260502123234 | 40 | 149 | 8.7 | 13.0 | 0.00 | 0.00 | 0.00 | 62 | 1007.8 |
| 20260502122314 | 39 | 150 | 6.1 | 10.4 | 0.00 | 0.00 | 0.00 | 63 | 1008.0 |
| 20260502121734 | 38 | 149 | 7.0 | 11.3 | 0.00 | 0.00 | 0.00 | 64 | 1008.1 |
| 20260502121314 | 38 | 151 | 7.0 | 8.7 | 0.00 | 0.00 | 0.00 | 64 | 1008.1 |
| 20260502120314 | 36 | 156 | 6.1 | 10.4 | 0.00 | 0.00 | 0.00 | 65 | 1008.4 |
| 20260502120234 | 36 | 161 | 6.1 | 13.0 | 0.00 | 0.00 | 0.00 | 65 | 1008.3 |
| 20260502115314 | 36 | 159 | 7.8 | 13.9 | 0.00 | 0.00 | 0.00 | 65 | 1008.4 |
| 20260502114736 | 36 | 163 | 6.1 | 12.2 | 0.00 | 0.00 | 0.00 | 64 | 1008.4 |
| 20260502114314 | 36 | 153 | 6.1 | 7.0 | 0.00 | 0.00 | 0.00 | 64 | 1008.5 |
| 20260502113314 | 36 | 153 | 7.0 | 13.0 | 0.00 | 0.00 | 0.00 | 63 | 1008.6 |
| 20260502113235 | 36 | 156 | 7.0 | 10.4 | 0.00 | 0.00 | 0.00 | 63 | 1008.6 |
| 20260502112313 | 36 | 148 | 7.0 | 11.3 | 0.00 | 0.00 | 0.00 | 63 | 1008.7 |
| 20260502111735 | 36 | 145 | 7.0 | 11.3 | 0.00 | 0.00 | 0.00 | 63 | 1008.8 |
| 20260502111313 | 36 | 147 | 6.1 | 8.7 | 0.00 | 0.00 | 0.00 | 62 | 1008.9 |
| 20260502110313 | 36 | 148 | 6.1 | 8.7 | 0.00 | 0.00 | 0.00 | 62 | 1009.0 |
| 20260502110235 | 36 | 146 | 7.0 | 7.8 | 0.00 | 0.00 | 0.00 | 62 | 1009.1 |
| 20260502105315 | 36 | 150 | 6.1 | 10.4 | 0.00 | 0.00 | 0.00 | 61 | 1009.2 |
| 20260502104734 | 36 | 145 | 7.0 | 7.8 | 0.00 | 0.00 | 0.00 | 61 | 1009.3 |
| 20260502104314 | 36 | 151 | 6.1 | 7.8 | 0.00 | 0.00 | 0.00 | 60 | 1009.3 |
| 20260502103313 | 36 | 144 | 6.1 | 8.7 | 0.00 | 0.00 | 0.00 | 60 | 1009.4 |
| 20260502103235 | 36 | 148 | 6.1 | 8.7 | 0.00 | 0.00 | 0.00 | 60 | 1009.5 |
| 20260502102313 | 36 | 157 | 7.0 | 11.3 | 0.00 | 0.00 | 0.00 | 60 | 1009.6 |
| 20260502101735 | 37 | 154 | 6.1 | 11.3 | 0.00 | 0.00 | 0.00 | 59 | 1009.7 |
| 20260502101313 | 37 | 157 | 5.2 | 6.1 | 0.00 | 0.00 | 0.00 | 59 | 1009.8 |
| 20260502100315 | 37 | 147 | 7.8 | 12.2 | 0.00 | 0.00 | 0.00 | 59 | 1009.8 |
| 20260502100235 | 37 | 150 | 6.1 | 10.4 | 0.00 | 0.00 | 0.00 | 59 | 1009.9 |
| 20260502091314 | 37 | 143 | 7.8 | 10.4 | 0.00 | 0.00 | 0.00 | 57 | 1010.5 |
| 20260502090314 | 38 | 142 | 7.8 | 7.8 | 0.00 | 0.00 | 0.00 | 56 | 1010.6 |
| 20260502090234 | 38 | 142 | 7.8 | 11.3 | 0.00 | 0.00 | 0.00 | 56 | 1010.7 |
| 20260502071314 | 38 | 150 | 6.1 | 7.0 | 0.00 | 0.00 | 0.00 | 52 | 1012.5 |
| 20260502070314 | 39 | 149 | 5.2 | 7.0 | 0.00 | 0.00 | 0.00 | 53 | 1012.6 |
| 20260502070234 | 39 | 147 | 5.2 | 8.7 | 0.00 | 0.00 | 0.00 | 52 | 1012.7 |
| 20260502065314 | 39 | 150 | 6.1 | 8.7 | 0.00 | 0.00 | 0.00 | 52 | 1012.8 |
| 20260502064736 | 39 | 151 | 6.1 | 12.2 | 0.00 | 0.00 | 0.00 | 51 | 1012.9 |
| 20260502064314 | 39 | 148 | 4.3 | 7.8 | 0.00 | 0.00 | 0.00 | 51 | 1012.9 |
| 20260502063313 | 40 | 154 | 6.1 | 8.7 | 0.00 | 0.00 | 0.00 | 51 | 1012.9 |
| 20260502063235 | 40 | 151 | 5.2 | 7.8 | 0.00 | 0.00 | 0.00 | 51 | 1013.0 |
| 20260502062313 | 40 | 151 | 5.2 | 8.7 | 0.00 | 0.00 | 0.00 | 52 | 1013.1 |
| 20260502061735 | 40 | 153 | 5.2 | 7.0 | 0.00 | 0.00 | 0.00 | 51 | 1013.2 |
| 20260502061313 | 40 | 160 | 6.1 | 7.8 | 0.00 | 0.00 | 0.00 | 51 | 1013.2 |
| 20260502060313 | 39 | 156 | 6.1 | 7.0 | 0.00 | 0.00 | 0.00 | 52 | 1013.3 |
| 20260502060235 | 39 | 156 | 6.1 | 6.1 | 0.00 | 0.00 | 0.00 | 53 | 1013.3 |
| 20260502055314 | 38 | 151 | 6.1 | 7.8 | 0.00 | 0.00 | 0.00 | 54 | 1013.3 |
| 20260502054735 | 37 | 148 | 4.3 | 7.0 | 0.00 | 0.00 | 0.00 | 55 | 1013.4 |
| 20260502054314 | 37 | 152 | 4.3 | 8.7 | 0.00 | 0.00 | 0.00 | 55 | 1013.5 |
| 20260502053314 | 37 | 144 | 2.6 | 4.3 | 0.00 | 0.00 | 0.00 | 56 | 1013.6 |
| 20260502053234 | 37 | 150 | 4.3 | 5.2 | 0.00 | 0.00 | 0.00 | 56 | 1013.6 |
| 20260502052314 | 37 | 140 | 5.2 | 7.0 | 0.00 | 0.00 | 0.00 | 55 | 1013.6 |
| 20260502051736 | 37 | 140 | 5.2 | 5.2 | 0.00 | 0.00 | 0.00 | 55 | 1013.7 |
| 20260502051314 | 37 | 135 | 4.3 | 5.2 | 0.00 | 0.00 | 0.00 | 54 | 1013.8 |
| 20260502050313 | 37 | 138 | 5.2 | 4.3 | 0.00 | 0.00 | 0.00 | 54 | 1013.9 |
| 20260502050235 | 37 | 135 | 5.2 | 5.2 | 0.00 | 0.00 | 0.00 | 55 | 1013.9 |
| 20260502045313 | 38 | 134 | 5.2 | 5.2 | 0.00 | 0.00 | 0.00 | 52 | 1013.9 |
| 20260502044735 | 39 | 131 | 5.2 | 5.2 | 0.00 | 0.00 | 0.00 | 51 | 1014.0 |
| 20260502044313 | 39 | 133 | 5.2 | 5.2 | 0.00 | 0.00 | 0.00 | 51 | 1014.0 |
| 20260502043313 | 40 | 146 | 2.6 | 5.2 | 0.00 | 0.00 | 0.00 | 52 | 1014.0 |
| 20260502043235 | 40 | 153 | 2.6 | 5.2 | 0.00 | 0.00 | 0.00 | 51 | 1014.1 |
| 20260502042313 | 40 | 125 | 6.1 | 7.0 | 0.00 | 0.00 | 0.00 | 50 | 1014.1 |
| 20260502041735 | 41 | 127 | 4.3 | 5.2 | 0.00 | 0.00 | 0.00 | 50 | 1014.1 |
| 20260502041315 | 41 | 138 | 4.3 | 5.2 | 0.00 | 0.00 | 0.00 | 50 | 1014.1 |
| 20260502040314 | 41 | 144 | 2.6 | 2.6 | 0.00 | 0.00 | 0.00 | 51 | 1014.1 |
| 20260502040234 | 41 | 147 | 2.6 | 4.3 | 0.00 | 0.00 | 0.00 | 50 | 1014.2 |
| 20260502035314 | 41 | 144 | 1.7 | 1.7 | 0.00 | 0.00 | 0.00 | 48 | 1014.2 |
| 20260502034734 | 42 | 137 | 2.6 | 2.6 | 0.00 | 0.00 | 0.00 | 47 | 1014.2 |
| 20260502034314 | 42 | 134 | 4.3 | 4.3 | 0.00 | 0.00 | 0.00 | 48 | 1014.2 |
| 20260502033314 | 43 | 132 | 5.2 | 7.0 | 0.00 | 0.00 | 0.00 | 47 | 1014.2 |
| 20260502033236 | 43 | 120 | 4.3 | 5.2 | 0.00 | 0.00 | 0.00 | 47 | 1014.3 |
| 20260502032313 | 44 | 140 | 5.2 | 7.0 | 0.00 | 0.00 | 0.00 | 47 | 1014.2 |
| 20260502031735 | 44 | 156 | 2.6 | 4.3 | 0.00 | 0.00 | 0.00 | 46 | 1014.2 |
| 20260502031313 | 44 | 150 | 2.6 | 6.1 | 0.00 | 0.00 | 0.00 | 47 | 1014.2 |
| 20260502030313 | 45 | 144 | 2.6 | 4.3 | 0.00 | 0.00 | 0.00 | 46 | 1014.2 |
| 20260502030235 | 45 | 148 | 2.6 | 4.3 | 0.00 | 0.00 | 0.00 | 46 | 1014.2 |
| 20260502025313 | 46 | 145 | 1.7 | 4.3 | 0.00 | 0.00 | 0.00 | 45 | 1014.3 |
| 20260502024735 | 46 | 161 | 2.6 | 6.1 | 0.00 | 0.00 | 0.00 | 45 | 1014.3 |
| 20260502024314 | 46 | 144 | 2.6 | 7.0 | 0.00 | 0.00 | 0.00 | 44 | 1014.2 |
| 20260502023314 | 47 | 155 | 2.6 | 2.6 | 0.00 | 0.00 | 0.00 | 44 | 1014.2 |
| 20260502023235 | 47 | 155 | 1.7 | 2.6 | 0.00 | 0.00 | 0.00 | 44 | 1014.2 |
| 20260502022313 | 48 | 141 | 1.7 | 1.7 | 0.00 | 0.00 | 0.00 | 41 | 1014.1 |
| 20260502021735 | 49 | 129 | 4.3 | 5.2 | 0.00 | 0.00 | 0.00 | 40 | 1014.2 |
| 20260502021313 | 50 | 116 | 5.2 | 4.3 | 0.00 | 0.00 | 0.00 | 40 | 1014.1 |
| 20260502020313 | 51 | 161 | 2.6 | 6.1 | 0.00 | 0.00 | 0.00 | 40 | 1014.1 |
| 20260502020235 | 51 | 153 | 2.6 | 2.6 | 0.00 | 0.00 | 0.00 | 40 | 1014.1 |
| 20260502015315 | 51 | 160 | 2.6 | 7.0 | 0.00 | 0.00 | 0.00 | 40 | 1014.2 |
| 20260502014736 | 51 | 141 | 4.3 | 5.2 | 0.00 | 0.00 | 0.00 | 40 | 1014.2 |
| 20260502014313 | 52 | 143 | 2.6 | 5.2 | 0.00 | 0.00 | 0.00 | 39 | 1014.2 |
| 20260502013313 | 53 | 119 | 0.9 | 2.6 | 0.00 | 0.00 | 0.00 | 40 | 1014.3 |
| 20260502013235 | 53 | 119 | 0.9 | 0.9 | 0.00 | 0.00 | 0.00 | 40 | 1014.3 |
| 20260502012313 | 54 | 115 | 2.6 | 2.6 | 0.00 | 0.00 | 0.00 | 37 | 1014.3 |
| 20260502011735 | 54 | 119 | 2.6 | 4.3 | 0.00 | 0.00 | 0.00 | 37 | 1014.4 |
| 20260502011313 | 54 | 104 | 2.6 | 4.3 | 0.00 | 0.00 | 0.00 | 37 | 1014.4 |
| 20260502010315 | 55 | 78 | 1.7 | 1.7 | 0.00 | 0.00 | 0.00 | 37 | 1014.5 |
| 20260502010235 | 55 | 78 | 0.9 | 1.7 | 0.00 | 0.00 | 0.00 | 37 | 1014.5 |
| 20260502005314 | 55 | 57 | 1.7 | 1.7 | 0.00 | 0.00 | 0.00 | 36 | 1014.5 |
| 20260502004734 | 55 | 91 | 1.7 | 1.7 | 0.00 | 0.00 | 0.00 | 36 | 1014.6 |
| 20260502004314 | 55 | 91 | 1.7 | 2.6 | 0.00 | 0.00 | 0.00 | 36 | 1014.7 |
| 20260502003314 | 56 | 91 | 1.7 | 1.7 | 0.00 | 0.00 | 0.00 | 36 | 1014.7 |
| 20260502003234 | 56 | 91 | 2.6 | 2.6 | 0.00 | 0.00 | 0.00 | 35 | 1014.7 |
| 20260502002315 | 56 | 92 | 2.6 | 2.6 | 0.00 | 0.00 | 0.00 | 35 | 1014.9 |
| 20260502001734 | 56 | 108 | 2.6 | 4.3 | 0.00 | 0.00 | 0.00 | 35 | 1014.9 |
| 20260502001314 | 57 | 96 | 0.9 | 2.6 | 0.00 | 0.00 | 0.00 | 35 | 1014.9 |
| 20260502000313 | 57 | 114 | 2.6 | 2.6 | 0.00 | 0.00 | 0.00 | 33 | 1015.0 |
| 20260502000235 | 57 | 120 | 2.6 | 2.6 | 0.00 | 0.00 | 0.00 | 33 | 1015.0 |
| 20260501235313 | 58 | 177 | 1.7 | 2.6 | 0.00 | 0.00 | 0.00 | 34 | 1015.1 |
| 20260501234736 | 58 | 208 | 2.6 | 2.6 | 0.00 | 0.00 | 0.00 | 34 | 1015.1 |
| 20260501234314 | 58 | 264 | 4.3 | 4.3 | 0.00 | 0.00 | 0.00 | 33 | 1015.2 |
| 20260501233313 | 59 | 303 | 4.3 | 2.6 | 0.00 | 0.00 | 0.00 | 33 | 1015.1 |
| 20260501233235 | 59 | 300 | 6.1 | 7.8 | 0.00 | 0.00 | 0.00 | 33 | 1015.2 |
| 20260501232313 | 59 | 1 | 6.1 | 10.4 | 0.00 | 0.00 | 0.00 | 33 | 1015.2 |
| 20260501231735 | 59 | 277 | 2.6 | 5.2 | 0.00 | 0.00 | 0.00 | 33 | 1015.4 |
| 20260501231313 | 58 | 13 | 1.7 | 2.6 | 0.00 | 0.00 | 0.00 | 33 | 1015.4 |
| 20260501230314 | 58 | 250 | 0.9 | 1.7 | 0.00 | 0.00 | 0.00 | 32 | 1015.5 |
| 20260501230236 | 58 | 255 | 4.3 | 4.3 | 0.00 | 0.00 | 0.00 | 32 | 1015.5 |
| 20260501225314 | 58 | 241 | 7.0 | 7.0 | 0.00 | 0.00 | 0.00 | 33 | 1015.6 |
| 20260501224734 | 59 | 256 | 4.3 | 6.1 | 0.00 | 0.00 | 0.00 | 31 | 1015.6 |
| 20260501224313 | 59 | 307 | 1.7 | 4.3 | 0.00 | 0.00 | 0.00 | 32 | 1015.6 |
| 20260501223313 | 59 | 276 | 2.6 | 1.7 | 0.00 | 0.00 | 0.00 | 32 | 1015.6 |
| 20260501223235 | 59 | 258 | 6.1 | 7.8 | 0.00 | 0.00 | 0.00 | 32 | 1015.6 |
| 20260501222315 | 58 | 318 | 1.7 | 2.6 | 0.00 | 0.00 | 0.00 | 33 | 1015.7 |
| 20260501221734 | 58 | 34 | 1.7 | 2.6 | 0.00 | 0.00 | 0.00 | 32 | 1015.9 |
| 20260501221314 | 58 | 9 | 2.6 | 4.3 | 0.00 | 0.00 | 0.00 | 32 | 1015.9 |
| 20260501220314 | 58 | 346 | 6.1 | 10.4 | 0.00 | 0.00 | 0.00 | 32 | 1015.9 |
| 20260501220234 | 58 | 326 | 1.7 | 8.7 | 0.00 | 0.00 | 0.00 | 32 | 1015.9 |
| 20260501215313 | 58 | 319 | 7.8 | 10.4 | 0.00 | 0.00 | 0.00 | 33 | 1016.1 |
| 20260501214735 | 57 | 308 | 6.1 | 11.3 | 0.00 | 0.00 | 0.00 | 34 | 1016.1 |
| 20260501214314 | 57 | 204 | 0.0 | 0.9 | 0.00 | 0.00 | 0.00 | 32 | 1016.1 |
| 20260501213314 | 57 | 50 | 6.1 | 8.7 | 0.00 | 0.00 | 0.00 | 34 | 1016.2 |
| 20260501213236 | 57 | 34 | 2.6 | 7.8 | 0.00 | 0.00 | 0.00 | 34 | 1016.2 |
| 20260501212313 | 58 | 235 | 5.2 | 10.4 | 0.00 | 0.00 | 0.00 | 33 | 1016.3 |
| 20260501211734 | 58 | 263 | 6.1 | 7.0 | 0.00 | 0.00 | 0.00 | 32 | 1016.5 |
| 20260501211313 | 58 | 262 | 7.0 | 10.4 | 0.00 | 0.00 | 0.00 | 32 | 1016.4 |
| 20260501210314 | 57 | 161 | 1.7 | 2.6 | 0.00 | 0.00 | 0.00 | 33 | 1016.6 |
| 20260501210234 | 57 | 170 | 1.7 | 2.6 | 0.00 | 0.00 | 0.00 | 33 | 1016.6 |